createdAt,value
2022-11-16T00:01:03.647Z,12.60
2022-11-16T00:03:31.904Z,12.60
2022-11-16T00:06:00.272Z,12.60
2022-11-16T00:08:29.775Z,12.60
2022-11-16T00:11:04.889Z,12.60
2022-11-16T00:13:33.053Z,12.60
2022-11-16T00:16:00.891Z,12.60
2022-11-16T00:18:30.436Z,12.60
2022-11-16T00:20:58.503Z,12.60
2022-11-16T00:23:26.611Z,12.60
2022-11-16T00:25:54.462Z,12.50
2022-11-16T00:28:22.381Z,12.60
2022-11-16T00:30:58.635Z,12.60
2022-11-16T00:33:26.465Z,12.50
2022-11-16T00:35:55.688Z,12.50
2022-11-16T00:38:23.772Z,12.60
2022-11-16T00:40:51.629Z,12.50
2022-11-16T00:43:19.451Z,12.60
2022-11-16T00:45:47.291Z,12.60
2022-11-16T00:48:15.111Z,12.50
2022-11-16T00:50:42.938Z,12.50
2022-11-16T00:53:13.281Z,12.50
2022-11-16T00:55:41.187Z,12.50
2022-11-16T00:58:09.082Z,12.50
2022-11-16T01:00:37.097Z,12.50
2022-11-16T01:03:05.025Z,12.50
2022-11-16T01:05:32.909Z,12.50
2022-11-16T01:08:00.873Z,12.50
2022-11-16T01:10:30.027Z,12.50
2022-11-16T01:12:56.889Z,12.50
2022-11-16T01:15:25.752Z,12.50
2022-11-16T01:17:54.277Z,12.50
2022-11-16T01:20:22.904Z,12.50
2022-11-16T01:22:50.790Z,12.50
2022-11-16T01:25:18.778Z,12.50
2022-11-16T01:27:47.954Z,12.50
2022-11-16T01:30:16.150Z,12.40
2022-11-16T01:32:44.019Z,12.40
2022-11-16T01:35:15.541Z,12.30
2022-11-16T01:37:43.380Z,12.30
2022-11-16T01:40:12.092Z,12.30
2022-11-16T01:42:40.634Z,12.20
2022-11-16T01:45:17.112Z,12.20
2022-11-16T01:47:45.265Z,12.20
2022-11-16T01:50:14.544Z,12.20
2022-11-16T01:52:44.940Z,12.20
2022-11-16T01:55:13.267Z,12.20
2022-11-16T01:57:43.223Z,12.20
2022-11-16T02:00:14.419Z,12.20
2022-11-16T02:02:42.722Z,12.30
2022-11-16T02:05:11.001Z,12.10
2022-11-16T02:07:58.982Z,12.10
2022-11-16T02:10:34.561Z,12.10
2022-11-16T02:13:11.460Z,12.10
2022-11-16T02:15:42.395Z,12.00
2022-11-16T02:18:17.189Z,12.00
2022-11-16T02:21:04.700Z,12.00
2022-11-16T02:23:48.542Z,11.90
2022-11-16T02:26:23.181Z,11.90
2022-11-16T02:28:56.015Z,11.90
2022-11-16T02:31:27.399Z,11.80
2022-11-16T02:33:57.077Z,11.80
2022-11-16T02:36:26.038Z,11.80
2022-11-16T02:38:58.078Z,11.70
2022-11-16T02:41:27.160Z,11.80
2022-11-16T02:44:01.113Z,11.70
2022-11-16T02:46:32.251Z,11.60
2022-11-16T02:49:02.076Z,11.60
2022-11-16T02:51:31.274Z,11.60
2022-11-16T02:54:01.716Z,11.50
2022-11-16T02:56:29.794Z,11.50
2022-11-16T02:58:58.708Z,11.40
2022-11-16T03:01:28.574Z,11.40
2022-11-16T03:04:00.524Z,11.30
2022-11-16T03:06:29.682Z,11.30
2022-11-16T03:08:58.926Z,11.40
2022-11-16T03:11:44.241Z,11.30
2022-11-16T03:14:14.984Z,11.30
2022-11-16T03:16:44.931Z,11.30
2022-11-16T03:19:15.639Z,11.20
2022-11-16T03:21:45.466Z,11.20
2022-11-16T03:24:13.322Z,11.20
2022-11-16T03:26:47.567Z,11.20
2022-11-16T03:29:19.463Z,11.20
2022-11-16T03:31:49.750Z,11.20
2022-11-16T03:34:20.891Z,11.20
2022-11-16T03:36:49.799Z,11.10
2022-11-16T03:39:20.581Z,11.10
2022-11-16T03:41:49.518Z,11.10
2022-11-16T03:44:18.472Z,11.00
2022-11-16T03:46:46.643Z,11.00
2022-11-16T03:49:14.489Z,11.00
2022-11-16T03:51:43.850Z,11.00
2022-11-16T03:54:11.679Z,11.00
2022-11-16T03:56:39.518Z,11.00
2022-11-16T03:59:07.373Z,11.00
2022-11-16T04:01:36.582Z,10.90
2022-11-16T04:04:06.237Z,10.90
2022-11-16T04:07:06.145Z,10.90
2022-11-16T04:09:49.215Z,10.90
2022-11-16T04:12:34.598Z,10.90
2022-11-16T04:15:19.714Z,10.80
2022-11-16T04:18:07.078Z,10.70
2022-11-16T04:20:52.178Z,10.70
2022-11-16T04:23:37.142Z,10.70
2022-11-16T04:26:07.301Z,10.60
2022-11-16T04:28:35.136Z,10.60
2022-11-16T04:31:22.043Z,10.60
2022-11-16T04:34:08.203Z,10.50
2022-11-16T04:36:53.322Z,10.40
2022-11-16T04:39:21.321Z,10.40
2022-11-16T04:42:07.934Z,10.40
2022-11-16T04:44:50.009Z,10.40
2022-11-16T04:47:17.875Z,10.30
2022-11-16T04:49:45.727Z,10.30
2022-11-16T04:52:13.529Z,10.20
2022-11-16T04:54:41.348Z,10.20
2022-11-16T04:57:10.558Z,10.20
2022-11-16T04:59:38.386Z,10.30
2022-11-16T05:02:12.076Z,10.10
2022-11-16T05:04:40.823Z,10.20
2022-11-16T05:07:11.111Z,10.00
2022-11-16T05:09:41.477Z,10.30
2022-11-16T05:12:11.194Z,10.10
2022-11-16T05:14:39.020Z,9.90
2022-11-16T05:17:06.859Z,10.10
2022-11-16T05:22:20.547Z,9.80
2022-11-16T05:24:50.195Z,9.70
2022-11-16T05:27:20.199Z,9.70
2022-11-16T05:29:49.559Z,9.70
2022-11-16T05:32:18.300Z,9.70
2022-11-16T05:34:46.263Z,9.70
2022-11-16T05:37:14.570Z,9.80
2022-11-16T05:39:42.634Z,9.80
2022-11-16T05:42:10.501Z,9.80
2022-11-16T05:44:39.677Z,9.60
2022-11-16T05:47:07.481Z,9.70
2022-11-16T05:49:35.343Z,9.90
2022-11-16T05:52:03.201Z,9.70
2022-11-16T05:54:31.309Z,9.70
2022-11-16T05:56:59.203Z,9.60
2022-11-16T05:59:27.765Z,9.60
2022-11-16T06:01:57.877Z,9.80
2022-11-16T06:04:25.783Z,9.50
2022-11-16T06:06:53.683Z,9.40
2022-11-16T06:09:21.583Z,9.00
2022-11-16T06:11:49.494Z,9.40
2022-11-16T06:14:17.319Z,9.30
2022-11-16T06:16:45.233Z,9.30
2022-11-16T06:19:14.433Z,9.70
2022-11-16T06:21:42.354Z,9.30
2022-11-16T06:24:10.211Z,9.20
2022-11-16T06:26:38.318Z,9.30
2022-11-16T06:29:06.178Z,9.20
2022-11-16T06:31:34.043Z,9.20
2022-11-16T06:34:01.879Z,9.00
2022-11-16T06:36:31.116Z,9.10
2022-11-16T06:38:59.920Z,9.10
2022-11-16T06:41:27.772Z,9.10
2022-11-16T06:43:55.642Z,9.00
2022-11-16T06:46:24.609Z,9.00
2022-11-16T06:48:52.518Z,9.00
2022-11-16T06:56:18.021Z,9.70
2022-11-16T06:58:45.901Z,9.00
2022-11-16T07:01:13.803Z,9.00
2022-11-16T07:03:41.682Z,9.00
2022-11-16T07:08:37.968Z,9.00
2022-11-16T07:11:06.678Z,8.90
2022-11-16T07:13:36.396Z,8.90
2022-11-16T07:16:04.566Z,8.90
2022-11-16T07:18:33.760Z,8.90
2022-11-16T07:21:06.344Z,8.90
2022-11-16T07:23:34.355Z,8.90
2022-11-16T07:26:02.720Z,8.90
2022-11-16T07:28:30.800Z,8.90
2022-11-16T07:31:03.125Z,9.00
2022-11-16T07:33:31.268Z,9.00
2022-11-16T07:36:01.808Z,9.10
2022-11-16T07:38:29.770Z,9.20
2022-11-16T07:41:00.430Z,9.30
2022-11-16T07:43:29.202Z,9.40
2022-11-16T07:46:19.994Z,9.60
2022-11-16T07:48:47.854Z,9.60
2022-11-16T07:51:16.635Z,9.80
2022-11-16T07:53:44.972Z,10.10
2022-11-16T07:56:13.112Z,10.10
2022-11-16T07:58:40.991Z,10.30
2022-11-16T08:01:11.272Z,10.40
2022-11-16T08:03:39.933Z,10.60
2022-11-16T08:06:11.937Z,10.90
2022-11-16T08:08:40.002Z,11.10
2022-11-16T08:11:08.497Z,11.20
2022-11-16T08:13:37.530Z,11.40
2022-11-16T08:16:07.828Z,11.60
2022-11-16T08:18:36.661Z,11.80
2022-11-16T08:21:05.338Z,11.80
2022-11-16T08:23:34.768Z,12.00
2022-11-16T08:26:03.356Z,12.20
2022-11-16T08:28:32.249Z,12.20
2022-11-16T08:31:00.420Z,12.40
2022-11-16T08:33:29.865Z,12.60
2022-11-16T08:35:58.771Z,12.60
2022-11-16T08:38:26.664Z,12.90
2022-11-16T08:40:56.502Z,13.20
2022-11-16T08:43:24.368Z,13.60
2022-11-16T08:45:53.204Z,14.00
2022-11-16T08:48:21.058Z,14.10
2022-11-16T08:51:16.066Z,13.90
2022-11-16T08:53:36.754Z,14.20
2022-11-16T08:56:06.715Z,14.60
2022-11-16T08:58:34.845Z,15.10
2022-11-16T09:01:07.958Z,15.00
2022-11-16T09:03:35.787Z,15.60
2022-11-16T09:06:03.677Z,15.80
2022-11-16T09:08:32.016Z,16.00
2022-11-16T09:11:00.077Z,16.00
2022-11-16T09:13:29.387Z,16.30
2022-11-16T09:15:58.101Z,16.60
2022-11-16T09:18:26.195Z,16.20
2022-11-16T09:20:54.092Z,16.40
2022-11-16T09:23:25.293Z,16.30
2022-11-16T09:25:53.810Z,16.30
2022-11-16T09:28:22.286Z,16.50
2022-11-16T09:30:52.160Z,16.70
2022-11-16T09:33:20.032Z,16.50
2022-11-16T09:35:48.185Z,16.90
2022-11-16T09:38:22.104Z,16.90
2022-11-16T09:40:58.918Z,16.70
2022-11-16T09:43:35.460Z,16.20
2022-11-16T09:46:17.606Z,16.40
2022-11-16T09:48:45.539Z,16.10
2022-11-16T09:51:14.833Z,16.30
2022-11-16T09:53:43.768Z,16.30
2022-11-16T09:56:13.744Z,16.70
2022-11-16T09:58:47.137Z,16.10
2022-11-16T10:01:25.121Z,16.90
2022-11-16T10:03:55.049Z,16.80
2022-11-16T10:06:24.135Z,16.70
2022-11-16T10:08:52.737Z,16.80
2022-11-16T10:11:47.938Z,16.50
2022-11-16T10:14:23.164Z,16.70
2022-11-16T10:16:56.686Z,16.40
2022-11-16T10:19:31.832Z,15.90
2022-11-16T10:22:03.162Z,15.60
2022-11-16T10:24:34.453Z,15.40
2022-11-16T10:27:09.530Z,15.10
2022-11-16T10:29:46.525Z,14.80
2022-11-16T10:32:18.666Z,14.70
2022-11-16T10:34:51.115Z,14.50
2022-11-16T10:37:19.059Z,14.70
2022-11-16T10:39:48.970Z,14.60
2022-11-16T10:42:18.292Z,14.30
2022-11-16T10:44:47.704Z,14.30
2022-11-16T10:47:19.545Z,14.70
2022-11-16T10:49:51.379Z,14.50
2022-11-16T10:52:19.296Z,14.10
2022-11-16T10:54:47.136Z,14.20
2022-11-16T10:57:14.989Z,14.40
2022-11-16T10:59:44.005Z,14.60
2022-11-16T11:02:31.288Z,15.00
2022-11-16T11:05:03.413Z,14.90
2022-11-16T11:07:31.786Z,14.90
2022-11-16T11:09:59.749Z,15.00
2022-11-16T11:12:39.971Z,14.80
2022-11-16T11:15:25.350Z,15.00
2022-11-16T11:21:13.565Z,15.20
2022-11-16T11:23:46.261Z,15.30
2022-11-16T11:26:30.462Z,15.10
2022-11-16T11:29:02.568Z,15.10
2022-11-16T11:31:34.553Z,15.00
2022-11-16T11:34:08.469Z,14.90
2022-11-16T11:36:40.512Z,14.90
2022-11-16T11:39:09.658Z,14.90
2022-11-16T11:41:38.212Z,14.60
2022-11-16T11:44:06.924Z,15.00
2022-11-16T11:47:10.994Z,15.80
2022-11-16T11:49:33.274Z,16.10
2022-11-16T11:52:04.404Z,16.70
2022-11-16T11:54:33.925Z,16.70
2022-11-16T11:57:02.152Z,16.50
2022-11-16T11:59:30.137Z,16.20
2022-11-16T12:02:03.468Z,16.90
2022-11-16T12:04:49.175Z,16.80
2022-11-16T12:07:23.964Z,16.40
2022-11-16T12:09:57.083Z,16.50
2022-11-16T12:12:30.444Z,16.60
2022-11-16T12:15:03.633Z,16.50
2022-11-16T12:17:35.131Z,16.90
2022-11-16T12:20:16.309Z,16.90
2022-11-16T12:22:57.456Z,17.30
2022-11-16T12:25:31.863Z,17.30
2022-11-16T12:28:10.468Z,17.50
2022-11-16T12:30:41.268Z,16.90
2022-11-16T12:33:17.636Z,16.50
2022-11-16T12:35:52.585Z,16.70
2022-11-16T12:38:44.572Z,16.80
2022-11-16T12:41:23.912Z,16.40
2022-11-16T12:43:57.481Z,16.30
2022-11-16T12:46:28.458Z,16.30
2022-11-16T12:49:29.288Z,16.30
2022-11-16T12:52:05.015Z,16.40
2022-11-16T12:54:57.930Z,16.50
2022-11-16T12:57:37.141Z,16.10
2022-11-16T13:00:07.662Z,16.20
2022-11-16T13:02:42.252Z,16.10
2022-11-16T13:05:14.862Z,15.80
2022-11-16T13:07:45.155Z,15.50
2022-11-16T13:10:17.002Z,15.50
2022-11-16T13:12:48.049Z,15.40
2022-11-16T13:15:19.263Z,15.30
2022-11-16T13:17:51.266Z,15.70
2022-11-16T13:20:25.998Z,15.40
2022-11-16T13:22:56.830Z,15.40
2022-11-16T13:25:28.655Z,15.20
2022-11-16T13:28:00.971Z,15.40
2022-11-16T13:30:30.251Z,15.30
2022-11-16T13:33:04.243Z,15.00
2022-11-16T13:35:32.097Z,14.80
2022-11-16T13:38:00.054Z,14.90
2022-11-16T13:40:31.902Z,14.90
2022-11-16T13:43:03.122Z,15.30
2022-11-16T13:45:32.627Z,15.30
2022-11-16T13:48:15.586Z,15.20
2022-11-16T13:50:48.352Z,15.90
2022-11-16T13:56:11.148Z,16.00
2022-11-16T13:58:45.036Z,15.70
2022-11-16T14:01:15.419Z,15.60
2022-11-16T14:03:43.920Z,15.50
2022-11-16T14:06:30.425Z,15.40
2022-11-16T14:08:58.773Z,15.10
2022-11-16T14:11:36.917Z,14.50
2022-11-16T14:14:06.917Z,14.30
2022-11-16T14:16:45.468Z,14.00
2022-11-16T14:19:31.830Z,14.00
2022-11-16T14:22:03.309Z,14.00
2022-11-16T14:24:33.915Z,13.70
2022-11-16T14:27:07.006Z,13.70
2022-11-16T14:29:46.770Z,13.60
2022-11-16T14:32:20.073Z,13.50
2022-11-16T14:34:48.782Z,13.60
2022-11-16T14:37:29.706Z,13.80
2022-11-16T14:40:02.735Z,13.80
2022-11-16T14:42:48.199Z,13.60
2022-11-16T14:45:23.942Z,13.50
2022-11-16T14:47:52.080Z,13.30
2022-11-16T14:50:20.605Z,13.10
2022-11-16T14:52:50.348Z,13.00
2022-11-16T14:55:19.696Z,13.00
2022-11-16T14:57:47.742Z,13.00
2022-11-16T15:00:25.004Z,12.90
2022-11-16T15:02:57.609Z,12.80
2022-11-16T15:05:29.840Z,12.80
2022-11-16T15:07:59.986Z,12.80
2022-11-16T15:10:29.442Z,12.70
2022-11-16T15:12:57.987Z,12.70
2022-11-16T15:15:28.053Z,12.70
2022-11-16T15:18:07.084Z,12.60
2022-11-16T15:20:35.648Z,12.60
2022-11-16T15:23:04.803Z,12.50
2022-11-16T15:25:33.639Z,12.50
2022-11-16T15:28:02.624Z,12.50
2022-11-16T15:30:34.329Z,12.40
2022-11-16T15:33:03.345Z,12.40
2022-11-16T15:35:32.043Z,12.40
2022-11-16T15:38:03.753Z,12.30
2022-11-16T15:40:32.121Z,12.30
2022-11-16T15:43:01.199Z,12.30
2022-11-16T15:45:29.439Z,12.30
2022-11-16T15:48:00.546Z,12.20
2022-11-16T15:50:28.871Z,12.20
2022-11-16T15:52:57.089Z,12.10
2022-11-16T15:55:27.673Z,12.00
2022-11-16T15:58:00.837Z,12.00
2022-11-16T16:00:29.132Z,12.00
2022-11-16T16:02:59.811Z,11.90
2022-11-16T16:05:35.143Z,11.90
2022-11-16T16:08:03.625Z,11.80
2022-11-16T16:10:31.460Z,11.80
2022-11-16T16:12:59.780Z,11.70
2022-11-16T16:15:29.915Z,11.70
2022-11-16T16:17:58.759Z,11.60
2022-11-16T16:20:28.581Z,11.50
2022-11-16T16:23:07.518Z,11.50
2022-11-16T16:25:36.000Z,11.40
2022-11-16T16:28:04.416Z,11.40
2022-11-16T16:30:34.671Z,11.40
2022-11-16T16:33:02.594Z,11.40
2022-11-16T16:35:30.434Z,11.40
2022-11-16T16:37:58.837Z,11.40
2022-11-16T16:40:28.514Z,11.40
2022-11-16T16:42:56.492Z,11.30
2022-11-16T16:45:28.182Z,11.30
2022-11-16T16:47:56.014Z,11.30
2022-11-16T16:50:23.860Z,11.30
2022-11-16T16:52:51.724Z,11.20
2022-11-16T16:55:19.556Z,11.20
2022-11-16T16:57:48.777Z,11.20
2022-11-16T17:00:17.188Z,11.20
2022-11-16T17:02:45.296Z,11.20
2022-11-16T17:05:13.107Z,11.20
2022-11-16T17:07:40.921Z,11.20
2022-11-16T17:10:09.129Z,11.20
2022-11-16T17:12:36.996Z,11.20
2022-11-16T17:15:06.639Z,11.20
2022-11-16T17:17:36.237Z,11.20
2022-11-16T17:20:04.389Z,11.20
2022-11-16T17:22:33.427Z,11.10
2022-11-16T17:25:01.473Z,11.10
2022-11-16T17:27:29.346Z,11.10
2022-11-16T17:29:58.005Z,11.10
2022-11-16T17:32:27.273Z,10.90
2022-11-16T17:34:55.094Z,11.10
2022-11-16T17:37:22.995Z,11.10
2022-11-16T17:39:50.844Z,11.00
2022-11-16T17:42:18.654Z,11.30
2022-11-16T17:44:46.508Z,11.00
2022-11-16T17:47:14.459Z,11.00
2022-11-16T17:49:43.648Z,11.00
2022-11-16T17:52:11.569Z,10.40
2022-11-16T17:59:38.069Z,11.10
2022-11-16T18:02:05.906Z,10.30
2022-11-16T18:04:33.781Z,11.10
2022-11-16T18:07:03.062Z,10.90
2022-11-16T18:14:27.727Z,10.90
2022-11-16T18:16:55.582Z,10.90
2022-11-16T18:19:23.418Z,10.80
2022-11-16T18:24:20.988Z,10.80
2022-11-16T18:26:48.846Z,10.90
2022-11-16T18:29:18.689Z,10.90
2022-11-16T18:31:46.563Z,10.90
2022-11-16T18:34:16.799Z,10.90
2022-11-16T18:36:46.313Z,10.90
2022-11-16T18:39:14.193Z,10.90
2022-11-16T18:41:50.199Z,10.90
2022-11-16T18:44:21.184Z,10.90
2022-11-16T18:46:49.011Z,10.90
2022-11-16T18:49:16.944Z,10.90
2022-11-16T18:51:44.816Z,10.90
2022-11-16T18:54:12.887Z,10.90
2022-11-16T18:56:40.754Z,11.00
2022-11-16T18:59:09.940Z,11.00
2022-11-16T19:01:37.757Z,11.10
2022-11-16T19:26:30.540Z,10.90
2022-11-16T19:28:59.276Z,11.00
2022-11-16T19:31:28.626Z,11.00
2022-11-16T19:36:25.468Z,11.00
2022-11-16T19:38:53.290Z,10.90
2022-11-16T19:41:22.417Z,10.90
2022-11-16T19:43:52.664Z,10.90
2022-11-16T19:46:21.544Z,11.00
2022-11-16T19:48:50.128Z,11.00
2022-11-16T19:51:18.876Z,11.10
2022-11-16T19:53:47.038Z,11.10
2022-11-16T19:56:15.630Z,11.10
2022-11-16T19:58:43.653Z,11.10
2022-11-16T20:01:13.869Z,11.20
2022-11-16T20:03:41.981Z,11.20
2022-11-16T20:06:10.901Z,11.20
2022-11-16T20:08:39.244Z,11.20
2022-11-16T20:11:13.890Z,11.20
2022-11-16T20:13:42.092Z,11.10
2022-11-16T20:16:11.100Z,11.10
2022-11-16T20:18:40.860Z,11.10
2022-11-16T20:21:09.744Z,11.10
2022-11-16T20:23:37.939Z,11.10
2022-11-16T20:26:06.520Z,11.20
2022-11-16T20:31:05.365Z,11.00
2022-11-16T20:36:05.347Z,10.90
2022-11-16T20:38:33.404Z,11.10
2022-11-16T20:41:08.052Z,11.10
2022-11-16T20:43:36.144Z,11.10
2022-11-16T20:46:04.317Z,11.10
2022-11-16T20:48:32.129Z,11.20
2022-11-16T20:50:59.991Z,11.00
2022-11-16T20:53:29.203Z,10.90
2022-11-16T20:55:57.494Z,11.10
2022-11-16T20:58:25.490Z,11.10
2022-11-16T21:00:53.362Z,11.10
2022-11-16T21:03:21.236Z,11.00
2022-11-16T21:05:51.705Z,11.00
2022-11-16T21:08:19.560Z,11.20
2022-11-16T21:10:49.943Z,10.90
2022-11-16T21:16:04.303Z,10.90
2022-11-16T21:18:32.616Z,11.10
2022-11-16T21:23:29.217Z,10.90
2022-11-16T21:26:02.327Z,10.90
2022-11-16T21:28:30.415Z,10.90
2022-11-16T21:30:58.643Z,10.90
2022-11-16T21:33:26.577Z,10.90
2022-11-16T21:35:54.546Z,10.90
2022-11-16T21:38:22.759Z,10.90
2022-11-16T21:40:50.926Z,10.90
2022-11-16T21:43:20.423Z,10.90
2022-11-16T21:45:48.839Z,10.90
2022-11-16T21:48:16.685Z,10.90
2022-11-16T21:50:44.696Z,10.90
2022-11-16T21:53:12.555Z,11.00
2022-11-16T21:55:40.409Z,11.00
2022-11-16T21:58:08.277Z,11.50
2022-11-16T22:00:37.461Z,11.00
2022-11-16T22:03:05.297Z,11.00
2022-11-16T22:05:50.607Z,11.00
2022-11-16T22:08:18.433Z,11.00
2022-11-16T22:10:50.189Z,11.00
2022-11-16T22:13:18.048Z,11.10
2022-11-16T22:15:47.230Z,11.00
2022-11-16T22:18:15.056Z,11.10
2022-11-16T22:20:42.894Z,11.10
2022-11-16T22:23:10.717Z,11.10
2022-11-16T22:25:38.622Z,11.10
2022-11-16T22:28:20.082Z,11.20
2022-11-16T22:30:51.999Z,11.10
2022-11-16T22:33:20.336Z,11.20
2022-11-16T22:35:48.160Z,11.20
2022-11-16T22:38:16.021Z,11.20
2022-11-16T22:40:49.391Z,11.20
2022-11-16T22:43:17.267Z,11.20
2022-11-16T22:45:45.177Z,11.20
2022-11-16T22:48:14.739Z,11.20
2022-11-16T22:50:43.147Z,11.20
2022-11-16T22:53:11.078Z,11.20
2022-11-16T22:55:39.499Z,11.20
2022-11-16T23:13:39.903Z,11.20
2022-11-16T23:18:35.867Z,11.10
2022-11-16T23:21:21.464Z,11.10
2022-11-16T23:24:12.006Z,11.10
2022-11-16T23:32:00.321Z,11.10
2022-11-16T23:34:28.143Z,11.20
2022-11-16T23:36:55.985Z,11.20
2022-11-16T23:39:23.825Z,11.20
2022-11-16T23:42:08.907Z,11.20
2022-11-16T23:44:36.748Z,11.20
2022-11-16T23:47:05.975Z,11.20
2022-11-16T23:49:33.820Z,11.20
2022-11-16T23:52:01.612Z,11.20
2022-11-16T23:54:29.470Z,11.30
2022-11-16T23:56:58.146Z,11.30
